Kezdőlap
METAR-TAF:

METAR-TAF

Repülőterek :

Phetchabun, Thaiföld

földrajzi szélesség: 16-40-33N, földrajzi hosszúság: 101-11-42E, magasság: 137 m

Jelenlegi meteorológiai megfigyelések

A jelentés 48 perccel ezelõtt készült, 03:00 UTC
Különbözõ irányokból fújó szél 4 kt
Hőmérséklet 33°C
Páratartalom 53%
Légköri nyomás 1011 hPa
Látótávolság: 6000 m

METAR: VTPB 130300Z VRB04KT 6000 NSC 33/22 Q1011 NOSIG

Idő: 10:48 (03:48 UTC)

Előrejelzés

A jelentés 4 órával és 48 perccel ezelõtt készült, 23:00 UTC
Az előrejelzés 13-én 00 óra UTC és 13-én 24 óra UTC között érvényes
Kelet-délkeleti szél 5 kt
Látótávolság: 7000 m
Kevés felhő 3000 lábon
13-én 08 óra UTC és 13-én 12 óra UTC között ideiglenes
Kevés felhő 2000 lábon, Cumulonimbus.
Szórványos felhőzet 3000 lábon
zivatar, enyhe esõ,

TAF: VTPB 122300Z 1300/1324 12005KT 7000 FEW030 TEMPO 1308/1312 -TSRA FEW020CB SCT030

Meteorológiai megfigyelések és előrejelzések több, mint 4000 repülőtéren (METAR és TAF jelentéseket).

A térképen piros és sárga pontok jelzik az elérhető meteorológiai állomásokat.

Mozgassa az egeret a pont fölött, hogy megjelenjen az állomás neve.

Azután kattintson az időjárási megfigyelések és előrejelzések megtekintéséhez.

A térkép megváltoztatása: kattintson a fekete keresztel jelölt zöld gombra ráközelítéshez, a vonallal jelölt zöld gombra távolításhoz, vagy a zöld nyilakra a szomszédos térképek eléréséhez.


METAR-TAF: